Hill City, Kansas
Current Conditions -  °F | °C
As of 6:53 PM on Monday 24 Nov 2014 (Local Time) from KHLC Reporting Station
Overcast Overcast  
Wind Chill: 31°   Ceiling: 8500
Heat Index: 37°   Visibility: 10mi
Dew Point: 17°   Wind: 8mph
Humidity: 44%   Direction: 300°WNW
Pressure: 30.05"   Gusts: NA
Location:  39.36°N, 99.84°W
Report Text: KHLC 250053Z AUTO 30007KT 10SM OVC085 03/M08 A3005 RMK AO2 SLP193 T00281083
Loading
Personal Weather Stations






























Interactive Weather Map New forecast layout! Learn more

10-Day Weather Forecast

Advertisements
Track Severe Weather on mobile